sensor_id;sensor_type;location;lat;lon;timestamp;P1;durP1;ratioP1;P2;durP2;ratioP2
81364;SDS011;70821;53.016;9.010;2023-08-21T00:01:52;5.50;;;1.95;;
81364;SDS011;70821;53.016;9.010;2023-08-21T00:04:17;5.75;;;2.17;;
81364;SDS011;70821;53.016;9.010;2023-08-21T00:06:43;6.43;;;1.88;;
81364;SDS011;70821;53.016;9.010;2023-08-21T00:09:08;6.13;;;1.93;;
81364;SDS011;70821;53.016;9.010;2023-08-21T00:11:33;6.00;;;2.05;;
81364;SDS011;70821;53.016;9.010;2023-08-21T00:13:58;5.00;;;1.90;;
81364;SDS011;70821;53.016;9.010;2023-08-21T00:16:23;6.38;;;1.90;;
81364;SDS011;70821;53.016;9.010;2023-08-21T00:18:48;4.90;;;2.08;;
81364;SDS011;70821;53.016;9.010;2023-08-21T00:21:13;5.85;;;1.90;;
81364;SDS011;70821;53.016;9.010;2023-08-21T00:23:38;5.38;;;1.65;;
81364;SDS011;70821;53.016;9.010;2023-08-21T00:26:03;7.78;;;2.10;;
81364;SDS011;70821;53.016;9.010;2023-08-21T00:28:28;6.20;;;1.90;;
81364;SDS011;70821;53.016;9.010;2023-08-21T00:30:59;5.10;;;1.92;;
81364;SDS011;70821;53.016;9.010;2023-08-21T00:33:25;4.40;;;1.80;;
81364;SDS011;70821;53.016;9.010;2023-08-21T00:35:50;6.75;;;2.10;;
81364;SDS011;70821;53.016;9.010;2023-08-21T00:38:15;5.82;;;1.90;;
81364;SDS011;70821;53.016;9.010;2023-08-21T00:40:40;3.67;;;1.70;;
81364;SDS011;70821;53.016;9.010;2023-08-21T00:43:05;6.85;;;1.88;;
81364;SDS011;70821;53.016;9.010;2023-08-21T00:45:30;4.70;;;1.85;;
81364;SDS011;70821;53.016;9.010;2023-08-21T00:47:55;5.73;;;1.97;;
81364;SDS011;70821;53.016;9.010;2023-08-21T00:50:20;5.97;;;1.73;;
81364;SDS011;70821;53.016;9.010;2023-08-21T00:52:45;5.05;;;1.88;;
81364;SDS011;70821;53.016;9.010;2023-08-21T00:55:12;4.95;;;1.70;;
81364;SDS011;70821;53.016;9.010;2023-08-21T00:57:37;4.15;;;1.50;;
81364;SDS011;70821;53.016;9.010;2023-08-21T01:00:03;3.78;;;1.52;;
81364;SDS011;70821;53.016;9.010;2023-08-21T01:02:29;4.35;;;1.85;;
81364;SDS011;70821;53.016;9.010;2023-08-21T01:04:54;5.50;;;1.70;;
81364;SDS011;70821;53.016;9.010;2023-08-21T01:07:19;5.97;;;1.70;;
81364;SDS011;70821;53.016;9.010;2023-08-21T01:09:49;5.15;;;1.63;;
81364;SDS011;70821;53.016;9.010;2023-08-21T01:12:19;3.95;;;1.73;;
81364;SDS011;70821;53.016;9.010;2023-08-21T01:17:21;3.33;;;1.45;;
81364;SDS011;70821;53.016;9.010;2023-08-21T01:19:48;3.10;;;1.40;;
81364;SDS011;70821;53.016;9.010;2023-08-21T01:22:14;4.97;;;1.40;;
81364;SDS011;70821;53.016;9.010;2023-08-21T01:24:39;5.25;;;1.70;;
81364;SDS011;70821;53.016;9.010;2023-08-21T01:27:04;3.80;;;1.58;;
81364;SDS011;70821;53.016;9.010;2023-08-21T01:29:29;6.25;;;1.50;;
81364;SDS011;70821;53.016;9.010;2023-08-21T01:32:00;2.90;;;1.40;;
81364;SDS011;70821;53.016;9.010;2023-08-21T01:34:26;4.03;;;1.42;;
81364;SDS011;70821;53.016;9.010;2023-08-21T01:36:53;3.60;;;1.50;;
81364;SDS011;70821;53.016;9.010;2023-08-21T01:39:18;4.35;;;1.70;;
81364;SDS011;70821;53.016;9.010;2023-08-21T01:41:43;4.18;;;1.40;;
81364;SDS011;70821;53.016;9.010;2023-08-21T01:44:08;4.07;;;1.60;;
81364;SDS011;70821;53.016;9.010;2023-08-21T01:46:34;4.35;;;1.52;;
81364;SDS011;70821;53.016;9.010;2023-08-21T01:48:59;4.93;;;1.80;;
81364;SDS011;70821;53.016;9.010;2023-08-21T01:51:24;3.58;;;1.42;;
81364;SDS011;70821;53.016;9.010;2023-08-21T01:53:49;4.88;;;1.70;;
81364;SDS011;70821;53.016;9.010;2023-08-21T01:56:14;3.45;;;1.38;;
81364;SDS011;70821;53.016;9.010;2023-08-21T01:58:39;3.90;;;1.58;;
81364;SDS011;70821;53.016;9.010;2023-08-21T02:01:04;4.43;;;2.20;;
81364;SDS011;70821;53.016;9.010;2023-08-21T02:03:29;3.58;;;1.42;;
81364;SDS011;70821;53.016;9.010;2023-08-21T02:05:57;4.80;;;1.70;;
81364;SDS011;70821;53.016;9.010;2023-08-21T02:08:22;4.10;;;1.42;;
81364;SDS011;70821;53.016;9.010;2023-08-21T02:10:50;4.63;;;1.50;;
81364;SDS011;70821;53.016;9.010;2023-08-21T02:13:16;5.32;;;1.70;;
81364;SDS011;70821;53.016;9.010;2023-08-21T02:15:41;3.87;;;1.47;;
81364;SDS011;70821;53.016;9.010;2023-08-21T02:18:06;2.72;;;1.40;;
81364;SDS011;70821;53.016;9.010;2023-08-21T02:20:31;3.13;;;1.80;;
81364;SDS011;70821;53.016;9.010;2023-08-21T02:22:56;3.75;;;1.63;;
81364;SDS011;70821;53.016;9.010;2023-08-21T02:25:21;3.45;;;1.35;;
81364;SDS011;70821;53.016;9.010;2023-08-21T02:27:46;4.80;;;1.30;;
81364;SDS011;70821;53.016;9.010;2023-08-21T02:30:11;3.65;;;1.55;;
81364;SDS011;70821;53.016;9.010;2023-08-21T02:32:37;2.33;;;1.20;;
81364;SDS011;70821;53.016;9.010;2023-08-21T02:35:02;2.63;;;1.20;;
81364;SDS011;70821;53.016;9.010;2023-08-21T02:37:27;2.90;;;1.27;;
81364;SDS011;70821;53.016;9.010;2023-08-21T02:39:52;3.20;;;1.35;;
81364;SDS011;70821;53.016;9.010;2023-08-21T02:42:17;2.75;;;1.30;;
81364;SDS011;70821;53.016;9.010;2023-08-21T02:44:42;3.47;;;1.20;;
81364;SDS011;70821;53.016;9.010;2023-08-21T02:47:07;2.65;;;1.40;;
81364;SDS011;70821;53.016;9.010;2023-08-21T02:49:32;3.58;;;1.30;;
81364;SDS011;70821;53.016;9.010;2023-08-21T02:51:57;4.90;;;1.40;;
81364;SDS011;70821;53.016;9.010;2023-08-21T02:54:22;3.33;;;1.30;;
81364;SDS011;70821;53.016;9.010;2023-08-21T02:56:47;2.65;;;1.10;;
81364;SDS011;70821;53.016;9.010;2023-08-21T02:59:13;1.88;;;1.02;;
81364;SDS011;70821;53.016;9.010;2023-08-21T03:01:38;3.55;;;1.30;;
81364;SDS011;70821;53.016;9.010;2023-08-21T03:04:03;3.67;;;1.33;;
81364;SDS011;70821;53.016;9.010;2023-08-21T03:06:28;2.50;;;1.30;;
81364;SDS011;70821;53.016;9.010;2023-08-21T03:08:53;1.80;;;1.10;;
81364;SDS011;70821;53.016;9.010;2023-08-21T03:11:18;3.08;;;1.38;;
81364;SDS011;70821;53.016;9.010;2023-08-21T03:13:43;2.08;;;1.20;;
81364;SDS011;70821;53.016;9.010;2023-08-21T03:16:08;3.33;;;1.23;;
81364;SDS011;70821;53.016;9.010;2023-08-21T03:18:53;3.63;;;1.10;;
81364;SDS011;70821;53.016;9.010;2023-08-21T03:21:19;2.92;;;1.25;;
81364;SDS011;70821;53.016;9.010;2023-08-21T03:23:44;2.67;;;1.10;;
81364;SDS011;70821;53.016;9.010;2023-08-21T03:26:09;3.45;;;1.30;;
81364;SDS011;70821;53.016;9.010;2023-08-21T03:28:34;3.08;;;1.45;;
81364;SDS011;70821;53.016;9.010;2023-08-21T03:30:59;3.67;;;1.40;;
81364;SDS011;70821;53.016;9.010;2023-08-21T03:33:24;2.00;;;1.35;;
81364;SDS011;70821;53.016;9.010;2023-08-21T03:35:53;2.88;;;1.45;;
81364;SDS011;70821;53.016;9.010;2023-08-21T03:38:18;2.22;;;1.30;;
81364;SDS011;70821;53.016;9.010;2023-08-21T03:40:43;3.92;;;1.30;;
81364;SDS011;70821;53.016;9.010;2023-08-21T03:43:08;3.05;;;1.50;;
81364;SDS011;70821;53.016;9.010;2023-08-21T03:45:33;4.57;;;1.37;;
81364;SDS011;70821;53.016;9.010;2023-08-21T03:47:58;3.85;;;1.27;;
81364;SDS011;70821;53.016;9.010;2023-08-21T03:50:23;3.42;;;1.20;;
81364;SDS011;70821;53.016;9.010;2023-08-21T03:52:48;2.40;;;1.10;;
81364;SDS011;70821;53.016;9.010;2023-08-21T03:55:13;3.85;;;1.33;;
81364;SDS011;70821;53.016;9.010;2023-08-21T03:57:39;3.20;;;1.00;;
81364;SDS011;70821;53.016;9.010;2023-08-21T04:00:04;2.97;;;1.30;;
81364;SDS011;70821;53.016;9.010;2023-08-21T04:02:29;3.80;;;1.50;;
81364;SDS011;70821;53.016;9.010;2023-08-21T04:04:54;2.65;;;1.30;;
81364;SDS011;70821;53.016;9.010;2023-08-21T04:07:19;3.08;;;1.30;;
81364;SDS011;70821;53.016;9.010;2023-08-21T04:09:44;4.43;;;1.88;;
81364;SDS011;70821;53.016;9.010;2023-08-21T04:12:09;3.72;;;1.60;;
81364;SDS011;70821;53.016;9.010;2023-08-21T04:14:35;3.28;;;1.65;;
81364;SDS011;70821;53.016;9.010;2023-08-21T04:17:00;4.95;;;1.90;;
81364;SDS011;70821;53.016;9.010;2023-08-21T04:19:25;4.25;;;1.90;;
81364;SDS011;70821;53.016;9.010;2023-08-21T04:21:50;4.30;;;2.00;;
81364;SDS011;70821;53.016;9.010;2023-08-21T04:24:15;5.95;;;2.10;;
81364;SDS011;70821;53.016;9.010;2023-08-21T04:26:40;5.70;;;2.17;;
81364;SDS011;70821;53.016;9.010;2023-08-21T04:29:05;5.65;;;2.20;;
81364;SDS011;70821;53.016;9.010;2023-08-21T04:31:30;5.00;;;2.10;;
81364;SDS011;70821;53.016;9.010;2023-08-21T04:33:55;5.07;;;2.17;;
81364;SDS011;70821;53.016;9.010;2023-08-21T04:36:20;6.10;;;2.20;;
81364;SDS011;70821;53.016;9.010;2023-08-21T04:38:45;5.57;;;2.05;;
81364;SDS011;70821;53.016;9.010;2023-08-21T04:41:11;5.32;;;2.08;;
81364;SDS011;70821;53.016;9.010;2023-08-21T04:43:36;7.05;;;2.50;;
81364;SDS011;70821;53.016;9.010;2023-08-21T04:46:01;8.73;;;2.10;;
81364;SDS011;70821;53.016;9.010;2023-08-21T04:48:26;2.90;;;1.85;;
81364;SDS011;70821;53.016;9.010;2023-08-21T04:50:51;4.35;;;2.13;;
81364;SDS011;70821;53.016;9.010;2023-08-21T04:53:16;4.90;;;2.35;;
81364;SDS011;70821;53.016;9.010;2023-08-21T04:55:41;5.13;;;2.40;;
81364;SDS011;70821;53.016;9.010;2023-08-21T04:58:07;5.57;;;2.28;;
81364;SDS011;70821;53.016;9.010;2023-08-21T05:00:32;4.10;;;2.47;;
81364;SDS011;70821;53.016;9.010;2023-08-21T05:02:58;5.75;;;2.28;;
81364;SDS011;70821;53.016;9.010;2023-08-21T05:05:23;5.00;;;2.35;;
81364;SDS011;70821;53.016;9.010;2023-08-21T05:07:48;4.03;;;2.28;;
81364;SDS011;70821;53.016;9.010;2023-08-21T05:10:13;5.47;;;2.47;;
81364;SDS011;70821;53.016;9.010;2023-08-21T05:12:38;5.35;;;2.40;;
81364;SDS011;70821;53.016;9.010;2023-08-21T05:15:03;5.10;;;2.53;;
81364;SDS011;70821;53.016;9.010;2023-08-21T05:17:28;6.47;;;2.50;;
81364;SDS011;70821;53.016;9.010;2023-08-21T05:19:53;7.15;;;2.83;;
81364;SDS011;70821;53.016;9.010;2023-08-21T05:22:19;8.00;;;2.83;;
81364;SDS011;70821;53.016;9.010;2023-08-21T05:24:44;6.38;;;2.65;;
81364;SDS011;70821;53.016;9.010;2023-08-21T05:27:09;6.75;;;2.78;;
81364;SDS011;70821;53.016;9.010;2023-08-21T05:29:34;8.00;;;2.70;;
81364;SDS011;70821;53.016;9.010;2023-08-21T05:31:59;5.60;;;2.33;;
81364;SDS011;70821;53.016;9.010;2023-08-21T05:34:24;5.70;;;2.30;;
81364;SDS011;70821;53.016;9.010;2023-08-21T05:36:49;4.40;;;2.70;;
81364;SDS011;70821;53.016;9.010;2023-08-21T05:39:14;8.25;;;2.90;;
81364;SDS011;70821;53.016;9.010;2023-08-21T05:41:39;5.22;;;2.80;;
81364;SDS011;70821;53.016;9.010;2023-08-21T05:44:04;5.18;;;2.50;;
81364;SDS011;70821;53.016;9.010;2023-08-21T05:46:29;5.40;;;2.33;;
81364;SDS011;70821;53.016;9.010;2023-08-21T05:48:54;5.10;;;2.63;;
81364;SDS011;70821;53.016;9.010;2023-08-21T05:51:20;6.40;;;2.70;;
81364;SDS011;70821;53.016;9.010;2023-08-21T05:53:45;7.38;;;2.97;;
81364;SDS011;70821;53.016;9.010;2023-08-21T05:56:10;8.93;;;3.15;;
81364;SDS011;70821;53.016;9.010;2023-08-21T05:58:35;7.20;;;2.97;;
81364;SDS011;70821;53.016;9.010;2023-08-21T06:01:00;7.55;;;2.97;;
81364;SDS011;70821;53.016;9.010;2023-08-21T06:03:25;7.93;;;3.10;;
81364;SDS011;70821;53.016;9.010;2023-08-21T06:05:50;8.30;;;3.22;;
81364;SDS011;70821;53.016;9.010;2023-08-21T06:08:15;6.30;;;3.00;;
81364;SDS011;70821;53.016;9.010;2023-08-21T06:10:41;8.43;;;3.23;;
81364;SDS011;70821;53.016;9.010;2023-08-21T06:13:06;9.38;;;3.00;;
81364;SDS011;70821;53.016;9.010;2023-08-21T06:15:31;8.27;;;3.20;;
81364;SDS011;70821;53.016;9.010;2023-08-21T06:17:57;11.50;;;2.80;;
81364;SDS011;70821;53.016;9.010;2023-08-21T06:20:22;10.57;;;3.20;;
81364;SDS011;70821;53.016;9.010;2023-08-21T06:22:47;10.35;;;3.13;;
81364;SDS011;70821;53.016;9.010;2023-08-21T06:25:12;9.52;;;2.70;;
81364;SDS011;70821;53.016;9.010;2023-08-21T06:27:37;6.93;;;2.55;;
81364;SDS011;70821;53.016;9.010;2023-08-21T06:30:02;7.70;;;2.50;;
81364;SDS011;70821;53.016;9.010;2023-08-21T06:32:27;6.85;;;2.58;;
81364;SDS011;70821;53.016;9.010;2023-08-21T06:34:52;7.55;;;2.58;;
81364;SDS011;70821;53.016;9.010;2023-08-21T06:37:17;9.13;;;2.42;;
81364;SDS011;70821;53.016;9.010;2023-08-21T06:39:43;8.75;;;3.30;;
81364;SDS011;70821;53.016;9.010;2023-08-21T06:42:08;6.60;;;2.63;;
81364;SDS011;70821;53.016;9.010;2023-08-21T06:44:33;6.45;;;2.70;;
81364;SDS011;70821;53.016;9.010;2023-08-21T06:46:58;6.75;;;2.72;;
81364;SDS011;70821;53.016;9.010;2023-08-21T06:49:23;8.65;;;2.50;;
81364;SDS011;70821;53.016;9.010;2023-08-21T06:51:48;7.95;;;2.45;;
81364;SDS011;70821;53.016;9.010;2023-08-21T06:54:13;10.05;;;2.25;;
81364;SDS011;70821;53.016;9.010;2023-08-21T06:56:39;6.57;;;2.00;;
81364;SDS011;70821;53.016;9.010;2023-08-21T06:59:04;9.45;;;2.55;;
81364;SDS011;70821;53.016;9.010;2023-08-21T07:01:29;6.03;;;2.10;;
81364;SDS011;70821;53.016;9.010;2023-08-21T07:03:54;6.13;;;1.90;;
81364;SDS011;70821;53.016;9.010;2023-08-21T07:06:19;5.53;;;1.70;;
81364;SDS011;70821;53.016;9.010;2023-08-21T07:08:45;8.23;;;2.17;;
81364;SDS011;70821;53.016;9.010;2023-08-21T07:11:10;5.55;;;1.80;;
81364;SDS011;70821;53.016;9.010;2023-08-21T07:13:35;5.60;;;1.85;;
81364;SDS011;70821;53.016;9.010;2023-08-21T07:16:00;8.93;;;2.28;;
81364;SDS011;70821;53.016;9.010;2023-08-21T07:18:26;5.88;;;1.90;;
81364;SDS011;70821;53.016;9.010;2023-08-21T07:20:54;6.30;;;2.10;;
81364;SDS011;70821;53.016;9.010;2023-08-21T07:23:19;8.43;;;2.10;;
81364;SDS011;70821;53.016;9.010;2023-08-21T07:25:44;6.10;;;1.80;;
81364;SDS011;70821;53.016;9.010;2023-08-21T07:28:09;4.15;;;1.70;;
81364;SDS011;70821;53.016;9.010;2023-08-21T07:30:36;4.47;;;1.60;;
81364;SDS011;70821;53.016;9.010;2023-08-21T07:33:01;3.95;;;1.63;;
81364;SDS011;70821;53.016;9.010;2023-08-21T07:35:26;6.10;;;1.90;;
81364;SDS011;70821;53.016;9.010;2023-08-21T07:37:51;5.22;;;1.88;;
81364;SDS011;70821;53.016;9.010;2023-08-21T07:40:16;5.32;;;1.65;;
81364;SDS011;70821;53.016;9.010;2023-08-21T07:42:41;6.75;;;1.77;;
81364;SDS011;70821;53.016;9.010;2023-08-21T07:45:07;5.53;;;1.98;;
81364;SDS011;70821;53.016;9.010;2023-08-21T07:47:32;6.43;;;1.88;;
81364;SDS011;70821;53.016;9.010;2023-08-21T07:49:57;9.90;;;1.90;;
81364;SDS011;70821;53.016;9.010;2023-08-21T07:52:22;3.28;;;1.50;;
81364;SDS011;70821;53.016;9.010;2023-08-21T07:54:51;8.23;;;1.70;;
81364;SDS011;70821;53.016;9.010;2023-08-21T07:57:16;4.43;;;1.80;;
81364;SDS011;70821;53.016;9.010;2023-08-21T07:59:41;4.60;;;1.58;;
81364;SDS011;70821;53.016;9.010;2023-08-21T08:02:06;4.07;;;1.55;;
81364;SDS011;70821;53.016;9.010;2023-08-21T08:04:31;5.85;;;2.00;;
81364;SDS011;70821;53.016;9.010;2023-08-21T08:06:56;4.55;;;1.55;;
81364;SDS011;70821;53.016;9.010;2023-08-21T08:09:21;6.93;;;1.77;;
81364;SDS011;70821;53.016;9.010;2023-08-21T08:11:47;5.40;;;1.85;;
81364;SDS011;70821;53.016;9.010;2023-08-21T08:14:12;2.78;;;1.50;;
81364;SDS011;70821;53.016;9.010;2023-08-21T08:16:37;3.92;;;1.55;;
81364;SDS011;70821;53.016;9.010;2023-08-21T08:19:02;6.57;;;1.80;;
81364;SDS011;70821;53.016;9.010;2023-08-21T08:21:27;4.63;;;1.67;;
81364;SDS011;70821;53.016;9.010;2023-08-21T08:23:52;4.40;;;1.50;;
81364;SDS011;70821;53.016;9.010;2023-08-21T08:26:17;4.43;;;1.70;;
81364;SDS011;70821;53.016;9.010;2023-08-21T08:28:42;4.70;;;1.65;;
81364;SDS011;70821;53.016;9.010;2023-08-21T08:31:14;4.03;;;1.67;;
81364;SDS011;70821;53.016;9.010;2023-08-21T08:33:39;4.72;;;1.58;;
81364;SDS011;70821;53.016;9.010;2023-08-21T08:36:04;3.73;;;1.47;;
81364;SDS011;70821;53.016;9.010;2023-08-21T08:38:29;3.97;;;1.63;;
81364;SDS011;70821;53.016;9.010;2023-08-21T08:40:54;3.90;;;1.60;;
81364;SDS011;70821;53.016;9.010;2023-08-21T08:43:20;3.20;;;1.48;;
81364;SDS011;70821;53.016;9.010;2023-08-21T08:45:46;4.43;;;1.27;;
81364;SDS011;70821;53.016;9.010;2023-08-21T08:48:12;4.07;;;1.38;;
81364;SDS011;70821;53.016;9.010;2023-08-21T08:50:37;4.03;;;1.50;;
81364;SDS011;70821;53.016;9.010;2023-08-21T08:53:02;3.17;;;1.50;;
81364;SDS011;70821;53.016;9.010;2023-08-21T08:55:27;2.85;;;1.25;;
81364;SDS011;70821;53.016;9.010;2023-08-21T08:57:53;4.00;;;1.50;;
81364;SDS011;70821;53.016;9.010;2023-08-21T09:00:18;4.47;;;1.50;;
81364;SDS011;70821;53.016;9.010;2023-08-21T09:02:43;5.40;;;1.50;;
81364;SDS011;70821;53.016;9.010;2023-08-21T09:05:08;3.75;;;1.58;;
81364;SDS011;70821;53.016;9.010;2023-08-21T09:07:33;4.57;;;1.67;;
81364;SDS011;70821;53.016;9.010;2023-08-21T09:09:58;5.45;;;1.50;;
81364;SDS011;70821;53.016;9.010;2023-08-21T09:12:24;2.50;;;1.38;;
81364;SDS011;70821;53.016;9.010;2023-08-21T09:14:49;4.10;;;1.30;;
81364;SDS011;70821;53.016;9.010;2023-08-21T09:17:14;3.58;;;1.50;;
81364;SDS011;70821;53.016;9.010;2023-08-21T09:19:39;4.25;;;1.40;;
81364;SDS011;70821;53.016;9.010;2023-08-21T09:24:36;3.25;;;1.48;;
81364;SDS011;70821;53.016;9.010;2023-08-21T09:27:01;8.63;;;2.25;;
81364;SDS011;70821;53.016;9.010;2023-08-21T09:29:27;2.47;;;1.20;;
81364;SDS011;70821;53.016;9.010;2023-08-21T09:31:52;4.97;;;1.30;;
81364;SDS011;70821;53.016;9.010;2023-08-21T09:34:20;3.20;;;1.23;;
81364;SDS011;70821;53.016;9.010;2023-08-21T09:36:52;3.45;;;1.60;;
81364;SDS011;70821;53.016;9.010;2023-08-21T09:39:18;3.47;;;1.10;;
81364;SDS011;70821;53.016;9.010;2023-08-21T09:41:46;2.88;;;1.30;;
81364;SDS011;70821;53.016;9.010;2023-08-21T09:44:19;2.63;;;1.30;;
81364;SDS011;70821;53.016;9.010;2023-08-21T09:46:47;2.83;;;1.10;;
81364;SDS011;70821;53.016;9.010;2023-08-21T09:49:13;3.28;;;1.40;;
81364;SDS011;70821;53.016;9.010;2023-08-21T09:51:38;2.33;;;1.23;;
81364;SDS011;70821;53.016;9.010;2023-08-21T09:54:03;3.20;;;1.30;;
81364;SDS011;70821;53.016;9.010;2023-08-21T09:56:28;4.50;;;1.30;;
81364;SDS011;70821;53.016;9.010;2023-08-21T09:58:54;3.83;;;1.33;;
81364;SDS011;70821;53.016;9.010;2023-08-21T10:01:19;4.82;;;1.35;;
81364;SDS011;70821;53.016;9.010;2023-08-21T10:03:45;4.78;;;1.30;;
81364;SDS011;70821;53.016;9.010;2023-08-21T10:06:11;4.15;;;1.77;;
81364;SDS011;70821;53.016;9.010;2023-08-21T10:08:39;2.92;;;1.33;;
81364;SDS011;70821;53.016;9.010;2023-08-21T10:11:06;3.08;;;1.40;;
81364;SDS011;70821;53.016;9.010;2023-08-21T10:13:32;2.85;;;1.27;;
81364;SDS011;70821;53.016;9.010;2023-08-21T10:15:57;3.75;;;1.25;;
81364;SDS011;70821;53.016;9.010;2023-08-21T10:18:32;4.33;;;1.40;;
81364;SDS011;70821;53.016;9.010;2023-08-21T10:21:14;2.15;;;1.13;;
81364;SDS011;70821;53.016;9.010;2023-08-21T10:23:39;2.65;;;1.50;;
81364;SDS011;70821;53.016;9.010;2023-08-21T10:26:05;4.38;;;1.30;;
81364;SDS011;70821;53.016;9.010;2023-08-21T10:33:50;3.10;;;1.15;;
81364;SDS011;70821;53.016;9.010;2023-08-21T10:36:15;2.97;;;1.40;;
81364;SDS011;70821;53.016;9.010;2023-08-21T10:39:00;3.22;;;1.30;;
81364;SDS011;70821;53.016;9.010;2023-08-21T10:41:27;4.47;;;1.30;;
81364;SDS011;70821;53.016;9.010;2023-08-21T10:43:52;3.00;;;1.40;;
81364;SDS011;70821;53.016;9.010;2023-08-21T10:46:18;4.25;;;1.27;;
81364;SDS011;70821;53.016;9.010;2023-08-21T10:48:43;3.00;;;1.25;;
81364;SDS011;70821;53.016;9.010;2023-08-21T10:51:08;2.95;;;1.23;;
81364;SDS011;70821;53.016;9.010;2023-08-21T10:53:33;4.05;;;1.17;;
81364;SDS011;70821;53.016;9.010;2023-08-21T10:56:04;3.08;;;1.15;;
81364;SDS011;70821;53.016;9.010;2023-08-21T10:58:38;3.33;;;1.13;;
81364;SDS011;70821;53.016;9.010;2023-08-21T11:01:03;2.60;;;1.17;;
81364;SDS011;70821;53.016;9.010;2023-08-21T11:03:28;2.75;;;1.13;;
81364;SDS011;70821;53.016;9.010;2023-08-21T11:08:27;2.50;;;1.00;;
81364;SDS011;70821;53.016;9.010;2023-08-21T11:10:52;2.28;;;1.20;;
81364;SDS011;70821;53.016;9.010;2023-08-21T11:13:17;3.80;;;1.10;;
81364;SDS011;70821;53.016;9.010;2023-08-21T11:15:44;4.60;;;1.42;;
81364;SDS011;70821;53.016;9.010;2023-08-21T11:18:10;4.30;;;1.15;;
81364;SDS011;70821;53.016;9.010;2023-08-21T11:20:35;3.80;;;1.30;;
81364;SDS011;70821;53.016;9.010;2023-08-21T11:23:01;4.15;;;1.30;;
81364;SDS011;70821;53.016;9.010;2023-08-21T11:25:26;3.03;;;1.33;;
81364;SDS011;70821;53.016;9.010;2023-08-21T11:27:52;3.38;;;1.30;;
81364;SDS011;70821;53.016;9.010;2023-08-21T11:30:17;2.63;;;1.10;;
81364;SDS011;70821;53.016;9.010;2023-08-21T11:32:42;4.60;;;1.55;;
81364;SDS011;70821;53.016;9.010;2023-08-21T11:35:07;3.13;;;1.27;;
81364;SDS011;70821;53.016;9.010;2023-08-21T11:37:32;2.67;;;1.42;;
81364;SDS011;70821;53.016;9.010;2023-08-21T11:39:58;3.72;;;1.58;;
81364;SDS011;70821;53.016;9.010;2023-08-21T11:42:31;4.20;;;1.40;;
81364;SDS011;70821;53.016;9.010;2023-08-21T11:44:56;2.28;;;1.30;;
81364;SDS011;70821;53.016;9.010;2023-08-21T11:47:22;3.80;;;1.40;;
81364;SDS011;70821;53.016;9.010;2023-08-21T11:49:47;3.10;;;1.40;;
81364;SDS011;70821;53.016;9.010;2023-08-21T11:52:13;3.15;;;1.63;;
81364;SDS011;70821;53.016;9.010;2023-08-21T11:54:39;3.35;;;1.52;;
81364;SDS011;70821;53.016;9.010;2023-08-21T11:57:08;2.80;;;1.40;;
81364;SDS011;70821;53.016;9.010;2023-08-21T11:59:33;2.67;;;1.48;;
81364;SDS011;70821;53.016;9.010;2023-08-21T12:01:58;3.53;;;1.63;;
81364;SDS011;70821;53.016;9.010;2023-08-21T12:04:24;2.95;;;1.50;;
81364;SDS011;70821;53.016;9.010;2023-08-21T12:06:49;3.30;;;1.60;;
81364;SDS011;70821;53.016;9.010;2023-08-21T12:09:14;4.03;;;1.80;;
81364;SDS011;70821;53.016;9.010;2023-08-21T12:11:39;4.57;;;1.50;;
81364;SDS011;70821;53.016;9.010;2023-08-21T12:14:05;3.33;;;1.60;;
81364;SDS011;70821;53.016;9.010;2023-08-21T12:16:30;4.80;;;2.05;;
81364;SDS011;70821;53.016;9.010;2023-08-21T12:18:55;4.50;;;1.83;;
81364;SDS011;70821;53.016;9.010;2023-08-21T12:21:20;3.78;;;1.73;;
81364;SDS011;70821;53.016;9.010;2023-08-21T12:23:45;4.22;;;2.22;;
81364;SDS011;70821;53.016;9.010;2023-08-21T12:26:10;3.67;;;1.60;;
81364;SDS011;70821;53.016;9.010;2023-08-21T12:28:35;5.30;;;2.25;;
81364;SDS011;70821;53.016;9.010;2023-08-21T12:31:00;3.92;;;2.20;;
81364;SDS011;70821;53.016;9.010;2023-08-21T12:33:25;3.03;;;1.73;;
81364;SDS011;70821;53.016;9.010;2023-08-21T12:35:50;5.05;;;1.80;;
81364;SDS011;70821;53.016;9.010;2023-08-21T12:38:16;3.63;;;1.88;;
81364;SDS011;70821;53.016;9.010;2023-08-21T12:40:41;4.10;;;1.90;;
81364;SDS011;70821;53.016;9.010;2023-08-21T12:43:06;4.30;;;2.20;;
81364;SDS011;70821;53.016;9.010;2023-08-21T12:45:31;3.47;;;1.98;;
81364;SDS011;70821;53.016;9.010;2023-08-21T12:47:56;4.35;;;1.90;;
81364;SDS011;70821;53.016;9.010;2023-08-21T12:50:21;5.18;;;1.90;;
81364;SDS011;70821;53.016;9.010;2023-08-21T12:52:46;5.22;;;2.13;;
81364;SDS011;70821;53.016;9.010;2023-08-21T12:55:11;5.20;;;2.05;;
81364;SDS011;70821;53.016;9.010;2023-08-21T12:57:36;3.90;;;2.00;;
81364;SDS011;70821;53.016;9.010;2023-08-21T13:00:02;5.22;;;2.22;;
81364;SDS011;70821;53.016;9.010;2023-08-21T13:02:27;4.23;;;2.30;;
81364;SDS011;70821;53.016;9.010;2023-08-21T13:04:52;5.05;;;2.30;;
81364;SDS011;70821;53.016;9.010;2023-08-21T13:07:17;4.43;;;2.30;;
81364;SDS011;70821;53.016;9.010;2023-08-21T13:09:42;4.10;;;2.50;;
81364;SDS011;70821;53.016;9.010;2023-08-21T13:12:07;6.82;;;2.13;;
81364;SDS011;70821;53.016;9.010;2023-08-21T13:14:32;3.40;;;1.88;;
81364;SDS011;70821;53.016;9.010;2023-08-21T13:16:57;4.90;;;2.30;;
81364;SDS011;70821;53.016;9.010;2023-08-21T13:19:22;4.35;;;2.00;;
81364;SDS011;70821;53.016;9.010;2023-08-21T13:21:47;4.18;;;2.05;;
81364;SDS011;70821;53.016;9.010;2023-08-21T13:24:13;4.63;;;2.20;;
81364;SDS011;70821;53.016;9.010;2023-08-21T13:26:38;8.23;;;2.80;;
81364;SDS011;70821;53.016;9.010;2023-08-21T13:29:03;4.32;;;2.08;;
81364;SDS011;70821;53.016;9.010;2023-08-21T13:31:28;5.38;;;2.30;;
81364;SDS011;70821;53.016;9.010;2023-08-21T13:33:53;4.70;;;2.13;;
81364;SDS011;70821;53.016;9.010;2023-08-21T13:36:18;4.25;;;2.20;;
81364;SDS011;70821;53.016;9.010;2023-08-21T13:38:43;5.43;;;2.40;;
81364;SDS011;70821;53.016;9.010;2023-08-21T13:41:08;6.00;;;2.50;;
81364;SDS011;70821;53.016;9.010;2023-08-21T13:43:34;4.68;;;2.42;;
81364;SDS011;70821;53.016;9.010;2023-08-21T13:46:02;5.82;;;2.45;;
81364;SDS011;70821;53.016;9.010;2023-08-21T13:48:27;5.65;;;2.20;;
81364;SDS011;70821;53.016;9.010;2023-08-21T13:50:52;6.97;;;2.50;;
81364;SDS011;70821;53.016;9.010;2023-08-21T13:53:17;5.03;;;2.55;;
81364;SDS011;70821;53.016;9.010;2023-08-21T13:55:42;7.07;;;2.55;;
81364;SDS011;70821;53.016;9.010;2023-08-21T13:58:07;4.53;;;2.42;;
81364;SDS011;70821;53.016;9.010;2023-08-21T14:00:32;5.25;;;2.60;;
81364;SDS011;70821;53.016;9.010;2023-08-21T14:02:57;4.88;;;2.72;;
81364;SDS011;70821;53.016;9.010;2023-08-21T14:05:23;6.25;;;2.28;;
81364;SDS011;70821;53.016;9.010;2023-08-21T14:07:48;4.55;;;2.17;;
81364;SDS011;70821;53.016;9.010;2023-08-21T14:10:13;5.53;;;2.75;;
81364;SDS011;70821;53.016;9.010;2023-08-21T14:12:38;4.32;;;2.30;;
81364;SDS011;70821;53.016;9.010;2023-08-21T14:15:03;5.55;;;2.50;;
81364;SDS011;70821;53.016;9.010;2023-08-21T14:17:28;4.72;;;2.25;;
81364;SDS011;70821;53.016;9.010;2023-08-21T14:19:53;5.82;;;2.17;;
81364;SDS011;70821;53.016;9.010;2023-08-21T14:22:19;4.20;;;2.08;;
81364;SDS011;70821;53.016;9.010;2023-08-21T14:24:44;5.53;;;2.25;;
81364;SDS011;70821;53.016;9.010;2023-08-21T14:27:09;4.60;;;2.20;;
81364;SDS011;70821;53.016;9.010;2023-08-21T14:29:34;3.85;;;2.17;;
81364;SDS011;70821;53.016;9.010;2023-08-21T14:31:59;4.05;;;2.10;;
81364;SDS011;70821;53.016;9.010;2023-08-21T14:34:24;4.03;;;1.98;;
81364;SDS011;70821;53.016;9.010;2023-08-21T14:36:50;5.32;;;2.28;;
81364;SDS011;70821;53.016;9.010;2023-08-21T14:39:15;4.55;;;2.10;;
81364;SDS011;70821;53.016;9.010;2023-08-21T14:41:43;5.82;;;2.42;;
81364;SDS011;70821;53.016;9.010;2023-08-21T14:44:08;7.32;;;2.38;;
81364;SDS011;70821;53.016;9.010;2023-08-21T14:46:33;6.57;;;2.40;;
81364;SDS011;70821;53.016;9.010;2023-08-21T14:48:59;6.90;;;2.47;;
81364;SDS011;70821;53.016;9.010;2023-08-21T14:51:24;5.88;;;2.38;;